sensor_id;sensor_type;location;lat;lon;timestamp;P1;durP1;ratioP1;P2;durP2;ratioP2
25721;SDS011;13578;53.450;15.496;2023-03-15T00:01:07;15.98;;;6.97;;
25721;SDS011;13578;53.450;15.496;2023-03-15T00:04:18;16.42;;;5.90;;
25721;SDS011;13578;53.450;15.496;2023-03-15T00:07:18;14.90;;;6.50;;
25721;SDS011;13578;53.450;15.496;2023-03-15T00:13:25;13.85;;;6.10;;
25721;SDS011;13578;53.450;15.496;2023-03-15T00:16:25;20.67;;;6.53;;
25721;SDS011;13578;53.450;15.496;2023-03-15T00:19:26;23.85;;;6.57;;
25721;SDS011;13578;53.450;15.496;2023-03-15T00:22:26;16.33;;;6.28;;
25721;SDS011;13578;53.450;15.496;2023-03-15T00:25:27;22.02;;;5.88;;
25721;SDS011;13578;53.450;15.496;2023-03-15T00:28:28;11.43;;;5.85;;
25721;SDS011;13578;53.450;15.496;2023-03-15T00:31:29;20.73;;;5.80;;
25721;SDS011;13578;53.450;15.496;2023-03-15T00:34:31;16.00;;;6.47;;
25721;SDS011;13578;53.450;15.496;2023-03-15T00:37:32;18.42;;;5.70;;
25721;SDS011;13578;53.450;15.496;2023-03-15T00:40:33;9.98;;;5.25;;
25721;SDS011;13578;53.450;15.496;2023-03-15T00:43:36;21.38;;;5.47;;
25721;SDS011;13578;53.450;15.496;2023-03-15T00:46:36;15.73;;;6.32;;
25721;SDS011;13578;53.450;15.496;2023-03-15T00:49:38;30.48;;;7.55;;
25721;SDS011;13578;53.450;15.496;2023-03-15T00:52:39;23.02;;;6.18;;
25721;SDS011;13578;53.450;15.496;2023-03-15T00:55:41;27.48;;;6.40;;
25721;SDS011;13578;53.450;15.496;2023-03-15T00:58:42;13.18;;;5.13;;
25721;SDS011;13578;53.450;15.496;2023-03-15T01:01:43;7.72;;;5.70;;
25721;SDS011;13578;53.450;15.496;2023-03-15T01:04:44;11.52;;;5.13;;
25721;SDS011;13578;53.450;15.496;2023-03-15T01:07:44;14.50;;;5.78;;
25721;SDS011;13578;53.450;15.496;2023-03-15T01:10:45;14.70;;;6.90;;
25721;SDS011;13578;53.450;15.496;2023-03-15T01:13:45;13.32;;;7.13;;
25721;SDS011;13578;53.450;15.496;2023-03-15T01:16:46;10.65;;;6.13;;
25721;SDS011;13578;53.450;15.496;2023-03-15T01:19:47;16.98;;;5.47;;
25721;SDS011;13578;53.450;15.496;2023-03-15T01:22:48;19.00;;;5.75;;
25721;SDS011;13578;53.450;15.496;2023-03-15T01:25:48;15.75;;;5.95;;
25721;SDS011;13578;53.450;15.496;2023-03-15T01:28:49;24.42;;;6.40;;
25721;SDS011;13578;53.450;15.496;2023-03-15T01:31:50;25.77;;;6.60;;
25721;SDS011;13578;53.450;15.496;2023-03-15T01:34:50;11.70;;;5.70;;
25721;SDS011;13578;53.450;15.496;2023-03-15T01:37:51;8.68;;;4.72;;
25721;SDS011;13578;53.450;15.496;2023-03-15T01:40:52;16.10;;;4.03;;
25721;SDS011;13578;53.450;15.496;2023-03-15T01:43:52;12.45;;;5.18;;
25721;SDS011;13578;53.450;15.496;2023-03-15T01:46:53;14.32;;;5.97;;
25721;SDS011;13578;53.450;15.496;2023-03-15T01:49:55;11.13;;;6.40;;
25721;SDS011;13578;53.450;15.496;2023-03-15T01:53:00;16.58;;;6.50;;
25721;SDS011;13578;53.450;15.496;2023-03-15T01:56:01;7.70;;;5.25;;
25721;SDS011;13578;53.450;15.496;2023-03-15T01:59:02;11.35;;;5.43;;
25721;SDS011;13578;53.450;15.496;2023-03-15T02:02:05;11.23;;;5.05;;
25721;SDS011;13578;53.450;15.496;2023-03-15T02:05:08;13.32;;;5.75;;
25721;SDS011;13578;53.450;15.496;2023-03-15T02:08:11;16.73;;;6.65;;
25721;SDS011;13578;53.450;15.496;2023-03-15T02:11:14;15.48;;;5.88;;
25721;SDS011;13578;53.450;15.496;2023-03-15T02:14:18;20.15;;;8.43;;
25721;SDS011;13578;53.450;15.496;2023-03-15T02:17:22;13.63;;;6.28;;
25721;SDS011;13578;53.450;15.496;2023-03-15T02:23:36;13.13;;;5.43;;
25721;SDS011;13578;53.450;15.496;2023-03-15T02:26:44;13.15;;;5.78;;
25721;SDS011;13578;53.450;15.496;2023-03-15T02:29:49;13.93;;;6.07;;
25721;SDS011;13578;53.450;15.496;2023-03-15T02:32:50;13.85;;;5.80;;
25721;SDS011;13578;53.450;15.496;2023-03-15T02:35:50;18.58;;;6.03;;
25721;SDS011;13578;53.450;15.496;2023-03-15T02:38:51;14.32;;;4.93;;
25721;SDS011;13578;53.450;15.496;2023-03-15T02:41:54;22.80;;;6.90;;
25721;SDS011;13578;53.450;15.496;2023-03-15T02:44:57;26.77;;;7.05;;
25721;SDS011;13578;53.450;15.496;2023-03-15T02:47:58;21.67;;;6.65;;
25721;SDS011;13578;53.450;15.496;2023-03-15T02:51:00;18.15;;;8.07;;
25721;SDS011;13578;53.450;15.496;2023-03-15T02:54:01;9.85;;;5.18;;
25721;SDS011;13578;53.450;15.496;2023-03-15T02:57:02;21.00;;;6.40;;
25721;SDS011;13578;53.450;15.496;2023-03-15T03:00:03;15.75;;;6.40;;
25721;SDS011;13578;53.450;15.496;2023-03-15T03:03:12;27.52;;;6.03;;
25721;SDS011;13578;53.450;15.496;2023-03-15T03:06:13;13.05;;;5.90;;
25721;SDS011;13578;53.450;15.496;2023-03-15T03:09:15;21.27;;;6.63;;
25721;SDS011;13578;53.450;15.496;2023-03-15T03:12:16;14.30;;;6.57;;
25721;SDS011;13578;53.450;15.496;2023-03-15T03:15:17;12.82;;;5.47;;
25721;SDS011;13578;53.450;15.496;2023-03-15T03:18:18;22.73;;;5.50;;
25721;SDS011;13578;53.450;15.496;2023-03-15T03:21:18;24.90;;;7.72;;
25721;SDS011;13578;53.450;15.496;2023-03-15T03:24:19;17.52;;;6.00;;
25721;SDS011;13578;53.450;15.496;2023-03-15T03:27:20;24.00;;;6.43;;
25721;SDS011;13578;53.450;15.496;2023-03-15T03:30:21;10.32;;;5.20;;
25721;SDS011;13578;53.450;15.496;2023-03-15T03:33:22;12.75;;;5.35;;
25721;SDS011;13578;53.450;15.496;2023-03-15T03:36:23;14.18;;;6.03;;
25721;SDS011;13578;53.450;15.496;2023-03-15T03:39:24;14.75;;;6.63;;
25721;SDS011;13578;53.450;15.496;2023-03-15T03:42:25;10.20;;;5.07;;
25721;SDS011;13578;53.450;15.496;2023-03-15T03:45:26;14.88;;;5.60;;
25721;SDS011;13578;53.450;15.496;2023-03-15T03:48:26;12.32;;;5.80;;
25721;SDS011;13578;53.450;15.496;2023-03-15T03:51:27;8.00;;;4.97;;
25721;SDS011;13578;53.450;15.496;2023-03-15T03:54:28;19.30;;;6.05;;
25721;SDS011;13578;53.450;15.496;2023-03-15T03:57:28;12.55;;;5.88;;
25721;SDS011;13578;53.450;15.496;2023-03-15T04:00:29;6.97;;;6.10;;
25721;SDS011;13578;53.450;15.496;2023-03-15T04:03:30;24.30;;;6.70;;
25721;SDS011;13578;53.450;15.496;2023-03-15T04:06:30;14.07;;;5.45;;
25721;SDS011;13578;53.450;15.496;2023-03-15T04:09:31;11.82;;;5.18;;
25721;SDS011;13578;53.450;15.496;2023-03-15T04:12:36;10.75;;;5.93;;
25721;SDS011;13578;53.450;15.496;2023-03-15T04:15:36;11.30;;;6.22;;
25721;SDS011;13578;53.450;15.496;2023-03-15T04:18:37;12.07;;;5.45;;
25721;SDS011;13578;53.450;15.496;2023-03-15T04:21:39;11.40;;;5.35;;
25721;SDS011;13578;53.450;15.496;2023-03-15T04:24:46;6.43;;;4.95;;
25721;SDS011;13578;53.450;15.496;2023-03-15T04:27:49;16.88;;;5.93;;
25721;SDS011;13578;53.450;15.496;2023-03-15T04:30:57;20.02;;;5.22;;
25721;SDS011;13578;53.450;15.496;2023-03-15T04:33:58;15.75;;;5.32;;
25721;SDS011;13578;53.450;15.496;2023-03-15T04:36:59;12.50;;;6.13;;
25721;SDS011;13578;53.450;15.496;2023-03-15T04:40:00;12.95;;;5.30;;
25721;SDS011;13578;53.450;15.496;2023-03-15T04:43:01;12.70;;;5.35;;
25721;SDS011;13578;53.450;15.496;2023-03-15T04:46:04;18.58;;;6.15;;
25721;SDS011;13578;53.450;15.496;2023-03-15T04:49:04;11.70;;;5.97;;
25721;SDS011;13578;53.450;15.496;2023-03-15T04:52:05;11.05;;;6.00;;
25721;SDS011;13578;53.450;15.496;2023-03-15T04:55:06;6.30;;;5.65;;
25721;SDS011;13578;53.450;15.496;2023-03-15T04:58:07;9.07;;;5.50;;
25721;SDS011;13578;53.450;15.496;2023-03-15T05:01:07;19.17;;;6.32;;
25721;SDS011;13578;53.450;15.496;2023-03-15T05:04:08;19.00;;;7.25;;
25721;SDS011;13578;53.450;15.496;2023-03-15T05:07:09;9.55;;;5.10;;
25721;SDS011;13578;53.450;15.496;2023-03-15T05:10:09;8.52;;;6.03;;
25721;SDS011;13578;53.450;15.496;2023-03-15T05:13:10;21.13;;;6.50;;
25721;SDS011;13578;53.450;15.496;2023-03-15T05:16:11;15.93;;;6.85;;
25721;SDS011;13578;53.450;15.496;2023-03-15T05:19:12;10.75;;;6.15;;
25721;SDS011;13578;53.450;15.496;2023-03-15T05:22:12;16.00;;;6.93;;
25721;SDS011;13578;53.450;15.496;2023-03-15T05:25:13;14.07;;;6.43;;
25721;SDS011;13578;53.450;15.496;2023-03-15T05:28:14;14.38;;;6.10;;
25721;SDS011;13578;53.450;15.496;2023-03-15T05:31:17;14.30;;;8.13;;
25721;SDS011;13578;53.450;15.496;2023-03-15T05:34:18;12.00;;;6.63;;
25721;SDS011;13578;53.450;15.496;2023-03-15T05:37:20;12.65;;;6.00;;
25721;SDS011;13578;53.450;15.496;2023-03-15T05:40:21;19.30;;;6.32;;
25721;SDS011;13578;53.450;15.496;2023-03-15T05:43:22;7.05;;;6.35;;
25721;SDS011;13578;53.450;15.496;2023-03-15T05:46:23;11.43;;;5.97;;
25721;SDS011;13578;53.450;15.496;2023-03-15T05:49:23;11.52;;;7.18;;
25721;SDS011;13578;53.450;15.496;2023-03-15T05:52:24;13.77;;;6.10;;
25721;SDS011;13578;53.450;15.496;2023-03-15T05:55:25;13.50;;;6.40;;
25721;SDS011;13578;53.450;15.496;2023-03-15T05:58:26;15.00;;;5.70;;
25721;SDS011;13578;53.450;15.496;2023-03-15T06:01:27;10.80;;;6.05;;
25721;SDS011;13578;53.450;15.496;2023-03-15T06:04:27;8.00;;;5.97;;
25721;SDS011;13578;53.450;15.496;2023-03-15T06:07:28;14.63;;;6.10;;
25721;SDS011;13578;53.450;15.496;2023-03-15T06:10:29;8.10;;;5.97;;
25721;SDS011;13578;53.450;15.496;2023-03-15T06:13:29;14.95;;;6.43;;
25721;SDS011;13578;53.450;15.496;2023-03-15T06:16:30;22.13;;;6.30;;
25721;SDS011;13578;53.450;15.496;2023-03-15T06:19:31;12.65;;;6.90;;
25721;SDS011;13578;53.450;15.496;2023-03-15T06:22:31;14.10;;;6.70;;
25721;SDS011;13578;53.450;15.496;2023-03-15T06:25:32;16.25;;;5.53;;
25721;SDS011;13578;53.450;15.496;2023-03-15T06:28:33;17.02;;;6.30;;
25721;SDS011;13578;53.450;15.496;2023-03-15T06:31:34;14.05;;;6.55;;
25721;SDS011;13578;53.450;15.496;2023-03-15T06:34:34;19.33;;;7.03;;
25721;SDS011;13578;53.450;15.496;2023-03-15T06:37:35;18.38;;;6.18;;
25721;SDS011;13578;53.450;15.496;2023-03-15T06:40:36;6.75;;;5.47;;
25721;SDS011;13578;53.450;15.496;2023-03-15T06:43:36;12.60;;;5.63;;
25721;SDS011;13578;53.450;15.496;2023-03-15T06:46:37;10.38;;;5.82;;
25721;SDS011;13578;53.450;15.496;2023-03-15T06:49:39;15.75;;;5.88;;
25721;SDS011;13578;53.450;15.496;2023-03-15T06:52:39;15.23;;;6.07;;
25721;SDS011;13578;53.450;15.496;2023-03-15T06:55:40;10.45;;;5.80;;
25721;SDS011;13578;53.450;15.496;2023-03-15T06:58:41;8.68;;;5.82;;
25721;SDS011;13578;53.450;15.496;2023-03-15T07:01:42;13.73;;;5.65;;
25721;SDS011;13578;53.450;15.496;2023-03-15T07:04:42;9.15;;;6.07;;
25721;SDS011;13578;53.450;15.496;2023-03-15T07:07:44;14.95;;;6.57;;
25721;SDS011;13578;53.450;15.496;2023-03-15T07:10:44;9.90;;;6.00;;
25721;SDS011;13578;53.450;15.496;2023-03-15T07:13:45;10.30;;;6.28;;
25721;SDS011;13578;53.450;15.496;2023-03-15T07:16:46;26.00;;;6.80;;
25721;SDS011;13578;53.450;15.496;2023-03-15T07:19:48;13.82;;;5.32;;
25721;SDS011;13578;53.450;15.496;2023-03-15T07:22:51;8.35;;;6.15;;
25721;SDS011;13578;53.450;15.496;2023-03-15T07:25:51;10.15;;;5.50;;
25721;SDS011;13578;53.450;15.496;2023-03-15T07:28:53;13.43;;;5.90;;
25721;SDS011;13578;53.450;15.496;2023-03-15T07:31:53;10.73;;;6.60;;
25721;SDS011;13578;53.450;15.496;2023-03-15T07:34:54;12.30;;;6.93;;
25721;SDS011;13578;53.450;15.496;2023-03-15T07:37:59;25.45;;;5.93;;
25721;SDS011;13578;53.450;15.496;2023-03-15T07:41:00;14.73;;;6.75;;
25721;SDS011;13578;53.450;15.496;2023-03-15T07:44:02;21.55;;;6.18;;
25721;SDS011;13578;53.450;15.496;2023-03-15T07:47:03;21.48;;;7.20;;
25721;SDS011;13578;53.450;15.496;2023-03-15T07:50:04;21.83;;;6.78;;
25721;SDS011;13578;53.450;15.496;2023-03-15T07:53:05;18.15;;;5.40;;
25721;SDS011;13578;53.450;15.496;2023-03-15T07:56:06;12.98;;;6.82;;
25721;SDS011;13578;53.450;15.496;2023-03-15T07:59:07;8.18;;;6.22;;
25721;SDS011;13578;53.450;15.496;2023-03-15T08:02:10;15.38;;;6.43;;
25721;SDS011;13578;53.450;15.496;2023-03-15T08:05:12;21.33;;;6.82;;
25721;SDS011;13578;53.450;15.496;2023-03-15T08:08:13;12.15;;;6.97;;
25721;SDS011;13578;53.450;15.496;2023-03-15T08:11:13;13.82;;;5.93;;
25721;SDS011;13578;53.450;15.496;2023-03-15T08:14:14;13.20;;;4.93;;
25721;SDS011;13578;53.450;15.496;2023-03-15T08:17:14;9.93;;;5.95;;
25721;SDS011;13578;53.450;15.496;2023-03-15T08:20:15;13.05;;;6.10;;
25721;SDS011;13578;53.450;15.496;2023-03-15T08:23:19;13.70;;;6.65;;
25721;SDS011;13578;53.450;15.496;2023-03-15T08:26:20;14.68;;;6.50;;
25721;SDS011;13578;53.450;15.496;2023-03-15T08:29:21;14.13;;;6.10;;
25721;SDS011;13578;53.450;15.496;2023-03-15T08:32:22;11.30;;;6.00;;
25721;SDS011;13578;53.450;15.496;2023-03-15T08:35:22;10.35;;;5.80;;
25721;SDS011;13578;53.450;15.496;2023-03-15T08:38:23;8.52;;;5.60;;
25721;SDS011;13578;53.450;15.496;2023-03-15T08:41:25;19.05;;;6.07;;
25721;SDS011;13578;53.450;15.496;2023-03-15T08:44:25;8.00;;;5.30;;
25721;SDS011;13578;53.450;15.496;2023-03-15T08:47:26;15.48;;;5.93;;
25721;SDS011;13578;53.450;15.496;2023-03-15T08:50:27;11.90;;;5.40;;
25721;SDS011;13578;53.450;15.496;2023-03-15T08:53:31;13.10;;;6.55;;
25721;SDS011;13578;53.450;15.496;2023-03-15T08:56:32;10.80;;;6.57;;
25721;SDS011;13578;53.450;15.496;2023-03-15T08:59:32;11.52;;;5.80;;
25721;SDS011;13578;53.450;15.496;2023-03-15T09:02:33;11.93;;;6.40;;
25721;SDS011;13578;53.450;15.496;2023-03-15T09:05:34;20.08;;;7.97;;
25721;SDS011;13578;53.450;15.496;2023-03-15T09:08:35;13.02;;;5.85;;
25721;SDS011;13578;53.450;15.496;2023-03-15T09:11:36;10.13;;;5.50;;
25721;SDS011;13578;53.450;15.496;2023-03-15T09:14:37;9.95;;;5.65;;
25721;SDS011;13578;53.450;15.496;2023-03-15T09:17:38;19.10;;;5.30;;
25721;SDS011;13578;53.450;15.496;2023-03-15T09:20:39;10.43;;;5.47;;
25721;SDS011;13578;53.450;15.496;2023-03-15T09:23:40;19.65;;;6.28;;
25721;SDS011;13578;53.450;15.496;2023-03-15T09:26:41;9.38;;;5.35;;
25721;SDS011;13578;53.450;15.496;2023-03-15T09:29:41;22.38;;;6.32;;
25721;SDS011;13578;53.450;15.496;2023-03-15T09:32:42;17.50;;;6.05;;
25721;SDS011;13578;53.450;15.496;2023-03-15T09:35:44;11.38;;;5.05;;
25721;SDS011;13578;53.450;15.496;2023-03-15T09:38:45;14.52;;;6.93;;
25721;SDS011;13578;53.450;15.496;2023-03-15T09:41:50;8.25;;;5.68;;
25721;SDS011;13578;53.450;15.496;2023-03-15T09:45:14;14.35;;;6.25;;
25721;SDS011;13578;53.450;15.496;2023-03-15T09:48:36;38.17;;;7.10;;
25721;SDS011;13578;53.450;15.496;2023-03-15T09:52:07;8.77;;;5.28;;
25721;SDS011;13578;53.450;15.496;2023-03-15T09:58:27;16.17;;;6.60;;
25721;SDS011;13578;53.450;15.496;2023-03-15T10:01:34;13.23;;;5.53;;
25721;SDS011;13578;53.450;15.496;2023-03-15T10:04:37;18.90;;;4.13;;
25721;SDS011;13578;53.450;15.496;2023-03-15T10:07:41;8.13;;;4.53;;
25721;SDS011;13578;53.450;15.496;2023-03-15T10:11:04;12.48;;;5.10;;
25721;SDS011;13578;53.450;15.496;2023-03-15T10:14:20;13.38;;;4.97;;
25721;SDS011;13578;53.450;15.496;2023-03-15T10:21:31;12.68;;;4.45;;
25721;SDS011;13578;53.450;15.496;2023-03-15T10:28:02;16.17;;;5.82;;
25721;SDS011;13578;53.450;15.496;2023-03-15T10:31:14;18.83;;;6.53;;
25721;SDS011;13578;53.450;15.496;2023-03-15T10:34:18;13.32;;;4.80;;
25721;SDS011;13578;53.450;15.496;2023-03-15T10:37:18;22.60;;;7.30;;
25721;SDS011;13578;53.450;15.496;2023-03-15T10:40:39;9.02;;;4.47;;
25721;SDS011;13578;53.450;15.496;2023-03-15T10:43:47;9.20;;;4.95;;
25721;SDS011;13578;53.450;15.496;2023-03-15T10:46:59;23.70;;;6.93;;
25721;SDS011;13578;53.450;15.496;2023-03-15T10:50:02;8.02;;;3.83;;
25721;SDS011;13578;53.450;15.496;2023-03-15T10:53:07;5.90;;;3.42;;
25721;SDS011;13578;53.450;15.496;2023-03-15T10:56:11;12.15;;;4.22;;
25721;SDS011;13578;53.450;15.496;2023-03-15T10:59:24;4.97;;;3.75;;
25721;SDS011;13578;53.450;15.496;2023-03-15T11:05:31;10.10;;;4.38;;
25721;SDS011;13578;53.450;15.496;2023-03-15T11:08:41;7.47;;;5.05;;
25721;SDS011;13578;53.450;15.496;2023-03-15T11:14:58;9.30;;;4.38;;
25721;SDS011;13578;53.450;15.496;2023-03-15T11:18:03;5.00;;;3.05;;
25721;SDS011;13578;53.450;15.496;2023-03-15T11:21:05;16.60;;;4.03;;
25721;SDS011;13578;53.450;15.496;2023-03-15T11:24:14;23.60;;;5.00;;
25721;SDS011;13578;53.450;15.496;2023-03-15T11:27:37;9.15;;;4.50;;
25721;SDS011;13578;53.450;15.496;2023-03-15T11:30:39;9.07;;;4.22;;
25721;SDS011;13578;53.450;15.496;2023-03-15T11:33:50;15.40;;;4.30;;
25721;SDS011;13578;53.450;15.496;2023-03-15T11:37:13;14.68;;;4.75;;
25721;SDS011;13578;53.450;15.496;2023-03-15T11:40:22;8.57;;;4.43;;
25721;SDS011;13578;53.450;15.496;2023-03-15T11:43:37;12.73;;;3.70;;
25721;SDS011;13578;53.450;15.496;2023-03-15T11:50:10;8.98;;;4.15;;
25721;SDS011;13578;53.450;15.496;2023-03-15T11:53:14;8.52;;;3.90;;
25721;SDS011;13578;53.450;15.496;2023-03-15T11:56:23;19.02;;;4.65;;
25721;SDS011;13578;53.450;15.496;2023-03-15T11:59:26;9.55;;;4.20;;
25721;SDS011;13578;53.450;15.496;2023-03-15T12:05:49;9.27;;;3.45;;
25721;SDS011;13578;53.450;15.496;2023-03-15T12:09:00;15.77;;;5.55;;
25721;SDS011;13578;53.450;15.496;2023-03-15T12:12:02;9.05;;;4.15;;
25721;SDS011;13578;53.450;15.496;2023-03-15T12:18:30;9.30;;;3.25;;
25721;SDS011;13578;53.450;15.496;2023-03-15T12:21:38;7.03;;;3.63;;
25721;SDS011;13578;53.450;15.496;2023-03-15T12:24:41;5.97;;;3.20;;
25721;SDS011;13578;53.450;15.496;2023-03-15T12:27:48;5.53;;;2.95;;
25721;SDS011;13578;53.450;15.496;2023-03-15T12:30:53;8.73;;;3.72;;
25721;SDS011;13578;53.450;15.496;2023-03-15T12:33:56;9.57;;;3.72;;
25721;SDS011;13578;53.450;15.496;2023-03-15T12:37:00;6.78;;;3.97;;
25721;SDS011;13578;53.450;15.496;2023-03-15T12:43:34;11.13;;;4.72;;
25721;SDS011;13578;53.450;15.496;2023-03-15T12:49:43;9.55;;;4.07;;
25721;SDS011;13578;53.450;15.496;2023-03-15T12:52:45;9.07;;;4.20;;
25721;SDS011;13578;53.450;15.496;2023-03-15T12:55:51;12.38;;;4.25;;
25721;SDS011;13578;53.450;15.496;2023-03-15T12:58:53;13.77;;;4.25;;
25721;SDS011;13578;53.450;15.496;2023-03-15T13:02:00;9.18;;;4.95;;
25721;SDS011;13578;53.450;15.496;2023-03-15T13:08:16;5.93;;;4.25;;
25721;SDS011;13578;53.450;15.496;2023-03-15T13:11:42;9.65;;;5.22;;
25721;SDS011;13578;53.450;15.496;2023-03-15T13:17:55;11.05;;;4.28;;
25721;SDS011;13578;53.450;15.496;2023-03-15T13:24:20;11.38;;;4.63;;
25721;SDS011;13578;53.450;15.496;2023-03-15T13:30:37;12.75;;;4.60;;
25721;SDS011;13578;53.450;15.496;2023-03-15T13:33:49;5.35;;;3.65;;
25721;SDS011;13578;53.450;15.496;2023-03-15T13:36:56;4.22;;;3.83;;
25721;SDS011;13578;53.450;15.496;2023-03-15T13:40:07;4.70;;;3.67;;
25721;SDS011;13578;53.450;15.496;2023-03-15T13:43:12;8.10;;;5.25;;
25721;SDS011;13578;53.450;15.496;2023-03-15T13:46:12;4.65;;;4.03;;
25721;SDS011;13578;53.450;15.496;2023-03-15T13:49:14;11.45;;;3.92;;
25721;SDS011;13578;53.450;15.496;2023-03-15T13:52:14;4.85;;;3.50;;
25721;SDS011;13578;53.450;15.496;2023-03-15T13:55:19;8.98;;;3.50;;
25721;SDS011;13578;53.450;15.496;2023-03-15T13:58:21;6.05;;;3.63;;
25721;SDS011;13578;53.450;15.496;2023-03-15T14:01:23;6.60;;;3.22;;
25721;SDS011;13578;53.450;15.496;2023-03-15T14:04:26;4.35;;;3.47;;
25721;SDS011;13578;53.450;15.496;2023-03-15T14:10:38;10.70;;;4.53;;
25721;SDS011;13578;53.450;15.496;2023-03-15T14:13:47;21.33;;;9.73;;
25721;SDS011;13578;53.450;15.496;2023-03-15T14:16:53;10.98;;;4.10;;
25721;SDS011;13578;53.450;15.496;2023-03-15T14:20:03;8.85;;;3.47;;
25721;SDS011;13578;53.450;15.496;2023-03-15T14:23:11;8.65;;;3.92;;
25721;SDS011;13578;53.450;15.496;2023-03-15T14:26:22;10.27;;;5.30;;
25721;SDS011;13578;53.450;15.496;2023-03-15T14:29:31;10.77;;;4.93;;
25721;SDS011;13578;53.450;15.496;2023-03-15T14:38:36;10.13;;;6.05;;
25721;SDS011;13578;53.450;15.496;2023-03-15T14:41:38;7.97;;;4.95;;
25721;SDS011;13578;53.450;15.496;2023-03-15T14:44:38;11.20;;;4.40;;
25721;SDS011;13578;53.450;15.496;2023-03-15T14:47:41;9.20;;;4.05;;
25721;SDS011;13578;53.450;15.496;2023-03-15T14:50:44;8.63;;;4.30;;
25721;SDS011;13578;53.450;15.496;2023-03-15T14:53:47;5.63;;;3.78;;
25721;SDS011;13578;53.450;15.496;2023-03-15T14:56:52;12.55;;;4.35;;
25721;SDS011;13578;53.450;15.496;2023-03-15T14:59:52;8.50;;;4.13;;
25721;SDS011;13578;53.450;15.496;2023-03-15T15:02:54;7.30;;;3.88;;
25721;SDS011;13578;53.450;15.496;2023-03-15T15:05:56;5.43;;;3.92;;
25721;SDS011;13578;53.450;15.496;2023-03-15T15:08:58;10.52;;;3.70;;
25721;SDS011;13578;53.450;15.496;2023-03-15T15:12:00;8.40;;;4.00;;
25721;SDS011;13578;53.450;15.496;2023-03-15T15:15:01;7.90;;;3.95;;
25721;SDS011;13578;53.450;15.496;2023-03-15T15:18:13;7.10;;;4.53;;
25721;SDS011;13578;53.450;15.496;2023-03-15T15:21:18;7.15;;;3.78;;
25721;SDS011;13578;53.450;15.496;2023-03-15T15:24:24;4.88;;;3.92;;
25721;SDS011;13578;53.450;15.496;2023-03-15T15:27:26;10.38;;;3.78;;
25721;SDS011;13578;53.450;15.496;2023-03-15T15:30:26;11.27;;;4.00;;
25721;SDS011;13578;53.450;15.496;2023-03-15T15:33:29;5.45;;;3.53;;
25721;SDS011;13578;53.450;15.496;2023-03-15T15:36:35;6.25;;;3.85;;
25721;SDS011;13578;53.450;15.496;2023-03-15T15:39:38;6.50;;;3.70;;
25721;SDS011;13578;53.450;15.496;2023-03-15T15:42:40;14.15;;;5.22;;
25721;SDS011;13578;53.450;15.496;2023-03-15T15:45:41;14.20;;;4.15;;
25721;SDS011;13578;53.450;15.496;2023-03-15T15:48:42;5.32;;;3.92;;
25721;SDS011;13578;53.450;15.496;2023-03-15T15:51:43;12.50;;;4.95;;
25721;SDS011;13578;53.450;15.496;2023-03-15T15:54:45;7.80;;;4.32;;
25721;SDS011;13578;53.450;15.496;2023-03-15T15:57:46;5.15;;;3.78;;
25721;SDS011;13578;53.450;15.496;2023-03-15T16:00:49;9.88;;;3.85;;
25721;SDS011;13578;53.450;15.496;2023-03-15T16:03:50;10.07;;;4.57;;
25721;SDS011;13578;53.450;15.496;2023-03-15T16:06:51;3.75;;;3.50;;
25721;SDS011;13578;53.450;15.496;2023-03-15T16:09:55;14.65;;;4.53;;
25721;SDS011;13578;53.450;15.496;2023-03-15T16:12:59;12.30;;;4.32;;
25721;SDS011;13578;53.450;15.496;2023-03-15T16:16:03;7.93;;;4.68;;
25721;SDS011;13578;53.450;15.496;2023-03-15T16:19:04;6.45;;;3.80;;
25721;SDS011;13578;53.450;15.496;2023-03-15T16:22:05;10.48;;;4.15;;
25721;SDS011;13578;53.450;15.496;2023-03-15T16:25:08;7.40;;;5.20;;
25721;SDS011;13578;53.450;15.496;2023-03-15T16:28:13;12.23;;;5.53;;
25721;SDS011;13578;53.450;15.496;2023-03-15T16:31:14;9.75;;;5.10;;
25721;SDS011;13578;53.450;15.496;2023-03-15T16:34:15;11.10;;;4.35;;
25721;SDS011;13578;53.450;15.496;2023-03-15T16:37:25;8.15;;;4.40;;
25721;SDS011;13578;53.450;15.496;2023-03-15T16:40:33;7.45;;;4.38;;
25721;SDS011;13578;53.450;15.496;2023-03-15T16:43:38;4.78;;;4.28;;
25721;SDS011;13578;53.450;15.496;2023-03-15T16:46:39;10.90;;;6.00;;
25721;SDS011;13578;53.450;15.496;2023-03-15T16:49:39;13.20;;;4.78;;
25721;SDS011;13578;53.450;15.496;2023-03-15T16:52:41;7.75;;;4.53;;
25721;SDS011;13578;53.450;15.496;2023-03-15T16:55:43;12.48;;;4.97;;
25721;SDS011;13578;53.450;15.496;2023-03-15T16:58:51;7.18;;;4.45;;
25721;SDS011;13578;53.450;15.496;2023-03-15T17:01:53;12.32;;;5.35;;
25721;SDS011;13578;53.450;15.496;2023-03-15T17:04:54;19.58;;;5.43;;
25721;SDS011;13578;53.450;15.496;2023-03-15T17:07:54;5.68;;;4.75;;
25721;SDS011;13578;53.450;15.496;2023-03-15T17:10:55;7.72;;;5.07;;
25721;SDS011;13578;53.450;15.496;2023-03-15T17:13:56;13.25;;;5.22;;
25721;SDS011;13578;53.450;15.496;2023-03-15T17:16:58;6.85;;;4.20;;
25721;SDS011;13578;53.450;15.496;2023-03-15T17:19:58;10.45;;;5.63;;
25721;SDS011;13578;53.450;15.496;2023-03-15T17:23:00;6.13;;;4.47;;
25721;SDS011;13578;53.450;15.496;2023-03-15T17:26:04;10.70;;;4.80;;
25721;SDS011;13578;53.450;15.496;2023-03-15T17:32:12;9.23;;;5.13;;
25721;SDS011;13578;53.450;15.496;2023-03-15T17:35:13;31.85;;;11.00;;
25721;SDS011;13578;53.450;15.496;2023-03-15T17:38:17;21.55;;;8.27;;
25721;SDS011;13578;53.450;15.496;2023-03-15T17:41:21;21.58;;;8.45;;
25721;SDS011;13578;53.450;15.496;2023-03-15T17:44:48;11.82;;;6.22;;
25721;SDS011;13578;53.450;15.496;2023-03-15T17:47:49;8.18;;;4.53;;
25721;SDS011;13578;53.450;15.496;2023-03-15T17:50:50;12.93;;;5.78;;
25721;SDS011;13578;53.450;15.496;2023-03-15T17:53:51;7.75;;;4.60;;
25721;SDS011;13578;53.450;15.496;2023-03-15T17:56:52;4.65;;;3.97;;
25721;SDS011;13578;53.450;15.496;2023-03-15T17:59:53;6.05;;;3.88;;
25721;SDS011;13578;53.450;15.496;2023-03-15T18:02:54;5.32;;;4.82;;
25721;SDS011;13578;53.450;15.496;2023-03-15T18:05:54;7.88;;;4.03;;
25721;SDS011;13578;53.450;15.496;2023-03-15T18:09:09;4.88;;;3.75;;
25721;SDS011;13578;53.450;15.496;2023-03-15T18:12:11;10.00;;;4.88;;
25721;SDS011;13578;53.450;15.496;2023-03-15T18:15:12;5.80;;;3.92;;
25721;SDS011;13578;53.450;15.496;2023-03-15T18:18:15;8.80;;;4.82;;
25721;SDS011;13578;53.450;15.496;2023-03-15T18:21:17;6.78;;;4.57;;
25721;SDS011;13578;53.450;15.496;2023-03-15T18:24:20;9.50;;;5.18;;
25721;SDS011;13578;53.450;15.496;2023-03-15T18:27:21;7.97;;;4.90;;
25721;SDS011;13578;53.450;15.496;2023-03-15T18:30:22;11.48;;;5.88;;
25721;SDS011;13578;53.450;15.496;2023-03-15T18:33:25;11.02;;;7.07;;
25721;SDS011;13578;53.450;15.496;2023-03-15T18:36:25;8.07;;;6.15;;
25721;SDS011;13578;53.450;15.496;2023-03-15T18:39:26;8.13;;;5.10;;
25721;SDS011;13578;53.450;15.496;2023-03-15T18:42:26;9.20;;;5.50;;
25721;SDS011;13578;53.450;15.496;2023-03-15T18:45:29;12.15;;;5.65;;
25721;SDS011;13578;53.450;15.496;2023-03-15T18:48:34;12.00;;;5.25;;
25721;SDS011;13578;53.450;15.496;2023-03-15T18:51:35;10.52;;;5.97;;
25721;SDS011;13578;53.450;15.496;2023-03-15T18:54:36;5.00;;;4.50;;
25721;SDS011;13578;53.450;15.496;2023-03-15T18:57:36;9.18;;;5.47;;
25721;SDS011;13578;53.450;15.496;2023-03-15T19:00:40;10.15;;;5.45;;